Time;durP1;ratioP1;P1;durP2;ratioP2;P2;SDS_P1;SDS_P2;PMS_P1;PMS_P2;Temp;Humidity;BMP_temperature;BMP_pressure;BME280_temperature;BME280_humidity;BME280_pressure;Samples;Min_cycle;Max_cycle;Signal;HPM_P1;HPM_P2
2023/09/16 00:01:55;;;;;;;;;;;;;;;22.93;35.73;102133.28;5010238;28;19917;-90
2023/09/16 00:04:21;;;;;;;;;;;;;;;22.88;35.68;102130.66;5013579;28;19924;-90
2023/09/16 00:06:47;;;;;;;;;;;;;;;22.82;35.69;102129.13;5000424;28;19918;-91
2023/09/16 00:09:12;;;;;;;;;;;;;;;22.78;35.77;102125.28;5009693;28;19976;-89
2023/09/16 00:11:37;;;;;;;;;;;;;;;22.75;35.75;102125.91;5013514;28;20370;-90
2023/09/16 00:14:03;;;;;;;;;;;;;;;22.69;35.96;102125.16;5009735;28;19948;-90
2023/09/16 00:16:29;;;;;;;;;;;;;;;22.64;35.91;102127.19;5008935;28;19927;-90
2023/09/16 00:18:54;;;;;;;;;;;;;;;22.58;36.11;102112.75;5015962;28;19921;-89
2023/09/16 00:21:20;;;;;;;;;;;;;;;22.52;36.08;102122.97;5030674;28;20075;-89
2023/09/16 00:23:45;;;;;;;;;;;;;;;22.42;36.29;102120.34;5015567;28;19917;-90
2023/09/16 00:26:13;;;;;;;;;;;;;;;22.35;36.21;102119.91;5013879;28;20395;-91
2023/09/16 00:28:40;;;;;;;;;;;;;;;22.30;36.41;102114.53;5009391;28;20293;-91
2023/09/16 00:31:06;;;;;;;;;;;;;;;22.25;36.26;102114.59;5013877;28;19960;-90
2023/09/16 00:33:32;;;;;;;;;;;;;;;22.22;36.43;102112.44;5029390;28;19926;-91
2023/09/16 00:35:58;;;;;;;;;;;;;;;22.17;36.60;102115.25;5028836;28;20381;-91
2023/09/16 00:38:23;;;;;;;;;;;;;;;22.12;36.65;102115.31;5010808;28;19918;-89
2023/09/16 00:40:49;;;;;;;;;;;;;;;22.08;36.68;102122.44;5011175;28;19979;-90
2023/09/16 00:43:14;;;;;;;;;;;;;;;22.06;36.54;102119.22;5011216;28;19924;-90
2023/09/16 00:45:41;;;;;;;;;;;;;;;22.03;36.65;102113.19;5006628;28;19965;-90
2023/09/16 00:48:06;;;;;;;;;;;;;;;22.00;36.67;102115.72;5014463;28;19917;-89
2023/09/16 00:50:32;;;;;;;;;;;;;;;21.96;36.66;102109.22;5004066;28;19917;-91
2023/09/16 00:52:59;;;;;;;;;;;;;;;21.89;36.59;102115.00;5009262;28;19917;-90
2023/09/16 00:55:26;;;;;;;;;;;;;;;21.82;36.76;102114.56;5010313;28;19992;-89
2023/09/16 00:57:53;;;;;;;;;;;;;;;21.75;36.64;102113.28;5016873;28;19980;-90
2023/09/16 01:00:19;;;;;;;;;;;;;;;21.64;36.91;102107.13;5006613;28;20393;-90
2023/09/16 01:02:45;;;;;;;;;;;;;;;21.59;37.12;102104.47;5012894;28;19918;-89
2023/09/16 01:05:17;;;;;;;;;;;;;;;21.53;37.12;102105.59;5007744;28;20394;-90
2023/09/16 01:07:44;;;;;;;;;;;;;;;21.49;37.34;102110.00;5010748;28;20516;-90
2023/09/16 01:10:11;;;;;;;;;;;;;;;21.44;37.37;102102.69;5017456;28;19933;-89
2023/09/16 01:12:40;;;;;;;;;;;;;;;21.39;37.43;102106.31;5008717;28;20363;-90
2023/09/16 01:15:06;;;;;;;;;;;;;;;21.32;37.61;102102.28;5015504;28;20304;-90
2023/09/16 01:17:34;;;;;;;;;;;;;;;21.21;37.58;102101.53;5004506;28;19918;-90
2023/09/16 01:20:02;;;;;;;;;;;;;;;21.15;37.61;102108.13;5004984;28;19920;-90
2023/09/16 01:22:28;;;;;;;;;;;;;;;21.08;38.04;102097.56;5002234;28;19980;-90
2023/09/16 01:24:54;;;;;;;;;;;;;;;21.04;37.90;102099.22;5004818;28;20361;-90
2023/09/16 01:27:20;;;;;;;;;;;;;;;21.01;38.07;102094.38;5001675;28;19963;-90
2023/09/16 01:29:46;;;;;;;;;;;;;;;20.97;37.81;102090.56;5024820;28;19926;-89
2023/09/16 01:32:13;;;;;;;;;;;;;;;20.89;37.99;102095.81;5024184;28;20408;-91
2023/09/16 01:34:44;;;;;;;;;;;;;;;20.83;37.89;102086.06;5004840;28;19963;-90
2023/09/16 01:37:12;;;;;;;;;;;;;;;20.82;38.14;102093.41;5004644;28;20511;-90
2023/09/16 01:39:39;;;;;;;;;;;;;;;20.80;38.26;102088.25;5014731;28;19918;-90
2023/09/16 01:42:05;;;;;;;;;;;;;;;20.78;38.19;102090.44;5007621;28;20425;-91
2023/09/16 01:44:31;;;;;;;;;;;;;;;20.73;38.18;102095.94;5004499;28;19957;-90
2023/09/16 01:46:56;;;;;;;;;;;;;;;20.69;38.16;102091.34;5003090;28;19921;-90
2023/09/16 01:49:22;;;;;;;;;;;;;;;20.67;38.14;102088.91;5006685;28;19921;-90
2023/09/16 01:51:48;;;;;;;;;;;;;;;20.67;38.14;102090.81;5011481;28;19921;-91
2023/09/16 01:54:13;;;;;;;;;;;;;;;20.62;38.35;102086.19;5012664;28;19917;-90
2023/09/16 01:56:38;;;;;;;;;;;;;;;20.61;38.31;102090.00;5007951;28;19917;-90
2023/09/16 01:59:04;;;;;;;;;;;;;;;20.58;38.25;102079.69;5021227;28;19913;-91
2023/09/16 02:01:29;;;;;;;;;;;;;;;20.56;38.46;102075.63;5002213;28;19917;-90
2023/09/16 02:03:55;;;;;;;;;;;;;;;20.54;38.26;102078.63;5012018;28;20131;-91
2023/09/16 02:06:21;;;;;;;;;;;;;;;20.50;38.25;102077.59;5007708;28;20352;-91
2023/09/16 02:08:46;;;;;;;;;;;;;;;20.43;38.52;102074.34;5002843;28;19984;-91
2023/09/16 02:11:11;;;;;;;;;;;;;;;20.37;38.41;102073.53;5008052;28;19928;-90
2023/09/16 02:13:37;;;;;;;;;;;;;;;20.34;38.56;102067.84;5013205;28;19963;-91
2023/09/16 02:16:02;;;;;;;;;;;;;;;20.29;38.68;102068.72;5010299;28;19929;-91
2023/09/16 02:18:27;;;;;;;;;;;;;;;20.22;38.68;102076.34;5009312;28;19918;-91
2023/09/16 02:20:53;;;;;;;;;;;;;;;20.18;38.82;102072.56;5000589;28;19917;-91
2023/09/16 02:23:18;;;;;;;;;;;;;;;20.14;38.82;102071.50;5007181;28;20450;-91
2023/09/16 02:25:44;;;;;;;;;;;;;;;20.11;39.04;102070.16;5006503;28;19918;-91
2023/09/16 02:28:09;;;;;;;;;;;;;;;20.09;38.74;102072.31;5007446;28;19924;-91
2023/09/16 02:30:34;;;;;;;;;;;;;;;20.08;39.04;102069.88;5008885;28;20302;-91
2023/09/16 02:33:00;;;;;;;;;;;;;;;20.05;38.86;102065.00;5008540;28;20378;-91
2023/09/16 02:35:25;;;;;;;;;;;;;;;20.02;38.79;102065.56;5018872;28;19918;-91
2023/09/16 02:37:50;;;;;;;;;;;;;;;19.99;38.87;102056.06;5024485;28;19921;-91
2023/09/16 02:40:16;;;;;;;;;;;;;;;19.97;38.99;102058.25;5022530;28;19917;-91
2023/09/16 02:42:41;;;;;;;;;;;;;;;19.93;39.15;102049.03;5009706;28;19918;-90
2023/09/16 02:45:07;;;;;;;;;;;;;;;19.89;39.20;102050.66;5009233;28;19924;-90
2023/09/16 02:47:33;;;;;;;;;;;;;;;19.87;39.12;102056.38;5010560;28;19939;-91
2023/09/16 02:49:59;;;;;;;;;;;;;;;19.82;39.10;102059.13;5014693;28;19922;-90
2023/09/16 02:52:24;;;;;;;;;;;;;;;19.78;39.14;102049.09;5016434;28;20337;-91
2023/09/16 02:54:50;;;;;;;;;;;;;;;19.76;39.21;102048.56;5017096;28;20007;-90
2023/09/16 02:57:15;;;;;;;;;;;;;;;19.76;39.15;102051.28;5016418;28;19952;-91
2023/09/16 02:59:41;;;;;;;;;;;;;;;19.72;39.34;102056.44;5018502;28;19932;-91
2023/09/16 03:02:06;;;;;;;;;;;;;;;19.69;39.40;102056.19;5019113;28;19960;-91
2023/09/16 03:04:31;;;;;;;;;;;;;;;19.63;39.22;102057.31;5014140;28;19924;-91
2023/09/16 03:06:57;;;;;;;;;;;;;;;19.56;39.64;102043.97;5031052;28;19918;-90
2023/09/16 03:09:22;;;;;;;;;;;;;;;19.53;39.47;102056.19;5018063;28;20353;-91
2023/09/16 03:11:48;;;;;;;;;;;;;;;19.49;39.47;102060.56;5009844;28;19917;-91
2023/09/16 03:14:13;;;;;;;;;;;;;;;19.44;39.57;102046.19;5017761;28;19970;-91
2023/09/16 03:16:39;;;;;;;;;;;;;;;19.40;39.56;102047.84;5012701;28;19971;-91
2023/09/16 03:19:04;;;;;;;;;;;;;;;19.38;39.82;102044.53;5010518;28;19975;-91
2023/09/16 03:21:29;;;;;;;;;;;;;;;19.37;39.67;102043.72;5007063;28;19972;-92
2023/09/16 03:23:55;;;;;;;;;;;;;;;19.33;39.71;102046.19;5009762;28;20413;-91
2023/09/16 03:26:21;;;;;;;;;;;;;;;19.26;39.70;102042.16;5014618;28;19926;-91
2023/09/16 03:28:46;;;;;;;;;;;;;;;19.23;39.99;102045.41;5016661;28;20390;-91
2023/09/16 03:31:12;;;;;;;;;;;;;;;19.21;40.04;102033.97;5016367;28;19932;-91
2023/09/16 03:33:37;;;;;;;;;;;;;;;19.18;39.95;102038.06;5016942;28;19924;-91
2023/09/16 03:36:04;;;;;;;;;;;;;;;19.18;39.78;102031.81;5010967;28;19917;-91
2023/09/16 03:38:30;;;;;;;;;;;;;;;19.17;39.81;102030.19;5013940;28;20289;-91
2023/09/16 03:40:56;;;;;;;;;;;;;;;19.14;39.81;102026.13;5016516;28;19952;-91
2023/09/16 03:43:21;;;;;;;;;;;;;;;19.11;39.81;102025.88;5015244;28;20413;-91
2023/09/16 03:45:46;;;;;;;;;;;;;;;19.05;39.94;102019.63;5016218;28;19921;-91
2023/09/16 03:48:12;;;;;;;;;;;;;;;18.98;40.08;102021.81;5016438;28;19925;-91
2023/09/16 03:50:37;;;;;;;;;;;;;;;18.94;40.21;102018.81;5018696;28;19960;-91
2023/09/16 03:53:03;;;;;;;;;;;;;;;18.85;40.23;102020.47;5017482;28;19926;-91
2023/09/16 03:55:29;;;;;;;;;;;;;;;18.77;40.47;102018.28;5014522;28;19918;-91
2023/09/16 03:57:54;;;;;;;;;;;;;;;18.73;40.45;102011.78;5015567;28;19924;-91
2023/09/16 04:00:20;;;;;;;;;;;;;;;18.68;40.63;102019.94;5018320;28;19918;-91
2023/09/16 04:02:46;;;;;;;;;;;;;;;18.63;40.57;102020.72;5017422;28;19918;-91
2023/09/16 04:05:13;;;;;;;;;;;;;;;18.63;40.32;102011.78;5009868;28;19917;-92
2023/09/16 04:07:39;;;;;;;;;;;;;;;18.62;40.56;102010.13;5009600;28;20386;-92
2023/09/16 04:10:04;;;;;;;;;;;;;;;18.59;40.42;102000.63;5012288;28;19921;-91
2023/09/16 04:12:33;;;;;;;;;;;;;;;18.56;40.59;102006.59;5011239;28;19917;-91
2023/09/16 04:14:58;;;;;;;;;;;;;;;18.54;40.47;101999.81;5012867;28;19925;-91
2023/09/16 04:17:23;;;;;;;;;;;;;;;18.51;40.65;102005.78;5010838;28;19918;-91
2023/09/16 04:19:49;;;;;;;;;;;;;;;18.50;40.67;102009.59;5014836;28;19972;-91
2023/09/16 04:22:19;;;;;;;;;;;;;;;18.42;40.68;101995.44;5006972;28;19917;-92
2023/09/16 04:24:44;;;;;;;;;;;;;;;18.41;40.49;102001.16;5016308;28;19913;-91
2023/09/16 04:27:09;;;;;;;;;;;;;;;18.39;40.87;102001.44;5011243;28;19918;-91
2023/09/16 04:29:35;;;;;;;;;;;;;;;18.36;40.96;102003.88;5028518;28;19929;-91
2023/09/16 04:32:00;;;;;;;;;;;;;;;18.29;41.00;102003.28;5028292;28;19945;-91
2023/09/16 04:34:26;;;;;;;;;;;;;;;18.24;40.87;102000.59;5008788;28;19917;-91
2023/09/16 04:36:54;;;;;;;;;;;;;;;18.21;41.06;102007.38;5027057;28;20008;-91
2023/09/16 04:39:23;;;;;;;;;;;;;;;18.20;41.14;102002.22;5008878;28;19918;-91
2023/09/16 04:41:53;;;;;;;;;;;;;;;18.15;41.07;102003.03;5011253;28;19918;-91
2023/09/16 04:44:21;;;;;;;;;;;;;;;18.08;41.30;101997.03;5012274;28;19917;-91
2023/09/16 04:46:47;;;;;;;;;;;;;;;18.05;41.39;102001.09;5009396;28;19961;-91
2023/09/16 04:49:12;;;;;;;;;;;;;;;18.01;41.55;101993.75;5011609;28;19964;-91
2023/09/16 04:51:40;;;;;;;;;;;;;;;18.02;41.22;101989.97;5011877;28;19987;-91
2023/09/16 04:54:07;;;;;;;;;;;;;;;18.05;41.27;101994.84;5010949;28;19914;-91
2023/09/16 04:56:37;;;;;;;;;;;;;;;18.05;41.09;101998.38;5014958;28;19922;-91
2023/09/16 04:59:02;;;;;;;;;;;;;;;18.04;41.40;101994.03;5018324;28;20184;-91
2023/09/16 05:01:31;;;;;;;;;;;;;;;18.02;41.52;101996.22;5011386;28;19996;-92
2023/09/16 05:03:56;;;;;;;;;;;;;;;18.01;41.41;102001.91;5018619;28;19917;-91
2023/09/16 05:06:24;;;;;;;;;;;;;;;18.00;41.49;102003.78;5028678;28;19917;-91
2023/09/16 05:08:50;;;;;;;;;;;;;;;17.99;41.49;102002.16;5010774;28;19926;-91
2023/09/16 05:11:15;;;;;;;;;;;;;;;18.02;41.51;102000.81;5015578;28;19925;-91
2023/09/16 05:13:50;;;;;;;;;;;;;;;18.05;41.52;102005.69;5010336;28;19928;-92
2023/09/16 05:16:15;;;;;;;;;;;;;;;18.06;41.60;102008.13;5011605;28;19925;-91
2023/09/16 05:18:41;;;;;;;;;;;;;;;18.08;41.55;102005.16;5013248;28;19928;-91
2023/09/16 05:21:06;;;;;;;;;;;;;;;18.09;41.55;102012.22;5018667;28;19929;-92
2023/09/16 05:23:33;;;;;;;;;;;;;;;18.13;41.91;102013.31;5026674;28;20000;-91
2023/09/16 05:25:59;;;;;;;;;;;;;;;18.19;41.72;102012.25;5028806;28;19917;-91
2023/09/16 05:28:24;;;;;;;;;;;;;;;18.24;41.60;102020.38;5004437;28;20444;-92
2023/09/16 05:30:54;;;;;;;;;;;;;;;18.31;41.79;102018.25;5004097;28;19926;-89
2023/09/16 05:33:19;;;;;;;;;;;;;;;18.42;41.92;102019.06;5005649;28;19922;-92
2023/09/16 05:35:44;;;;;;;;;;;;;;;18.51;41.98;102013.94;5016717;28;20421;-91
2023/09/16 05:38:10;;;;;;;;;;;;;;;18.55;41.75;102021.25;5008643;28;19924;-91
2023/09/16 05:40:36;;;;;;;;;;;;;;;18.63;42.09;102019.91;5011250;28;20309;-91
2023/09/16 05:43:01;;;;;;;;;;;;;;;18.73;41.88;102017.22;5010632;28;19925;-91
2023/09/16 05:45:27;;;;;;;;;;;;;;;18.82;42.08;102014.75;5009243;28;20602;-91
2023/09/16 05:47:52;;;;;;;;;;;;;;;18.93;41.57;102016.38;5011125;28;19918;-91
2023/09/16 05:50:17;;;;;;;;;;;;;;;19.02;41.55;102020.97;5011168;28;19975;-91
2023/09/16 05:52:43;;;;;;;;;;;;;;;19.15;41.51;102024.22;5010683;28;20354;-91
2023/09/16 05:55:09;;;;;;;;;;;;;;;19.25;41.66;102029.66;5004560;28;19932;-91
2023/09/16 05:57:34;;;;;;;;;;;;;;;19.36;41.62;102028.53;5011357;28;20000;-92
2023/09/16 05:59:59;;;;;;;;;;;;;;;19.47;41.86;102016.53;5031003;28;20442;-92
2023/09/16 06:02:25;;;;;;;;;;;;;;;19.61;41.70;102023.06;5019123;28;19918;-92
2023/09/16 06:04:50;;;;;;;;;;;;;;;19.75;41.64;102026.00;5007250;28;19936;-91
2023/09/16 06:07:16;;;;;;;;;;;;;;;19.90;41.58;102022.38;5023795;28;20409;-90
2023/09/16 06:09:41;;;;;;;;;;;;;;;20.03;41.55;102023.66;5008987;28;20586;-91
2023/09/16 06:12:07;;;;;;;;;;;;;;;20.15;41.37;102019.53;5010216;28;19921;-91
2023/09/16 06:14:32;;;;;;;;;;;;;;;20.29;41.52;102017.00;5010880;28;20374;-91
2023/09/16 06:16:58;;;;;;;;;;;;;;;20.46;41.65;102011.16;5010228;28;19917;-92
2023/09/16 06:19:24;;;;;;;;;;;;;;;20.61;41.47;102019.22;5015990;28;20407;-92
2023/09/16 06:21:50;;;;;;;;;;;;;;;20.79;41.72;102014.97;5013068;28;19918;-91
2023/09/16 06:24:15;;;;;;;;;;;;;;;20.94;41.37;102016.75;5007314;28;19917;-90
2023/09/16 06:26:41;;;;;;;;;;;;;;;21.09;41.41;102013.91;5005872;28;20043;-92
2023/09/16 06:29:06;;;;;;;;;;;;;;;21.25;41.19;102011.84;5011467;28;19928;-91
2023/09/16 06:31:31;;;;;;;;;;;;;;;21.38;41.01;102011.97;5026379;28;20018;-91
2023/09/16 06:33:57;;;;;;;;;;;;;;;21.52;40.92;101995.72;5007939;28;20465;-91
2023/09/16 06:36:22;;;;;;;;;;;;;;;21.65;40.99;101994.19;5011040;28;19917;-91
2023/09/16 06:38:48;;;;;;;;;;;;;;;21.80;40.95;101996.72;5008304;28;20282;-92
2023/09/16 06:41:13;;;;;;;;;;;;;;;21.85;40.65;102004.84;5013090;28;19921;-91
2023/09/16 06:43:38;;;;;;;;;;;;;;;21.92;40.91;101999.03;5025263;28;19918;-92
2023/09/16 06:46:04;;;;;;;;;;;;;;;22.05;40.64;102008.41;5009130;28;19917;-91
2023/09/16 06:48:29;;;;;;;;;;;;;;;22.19;40.46;102009.31;5011549;28;19967;-91
2023/09/16 06:50:54;;;;;;;;;;;;;;;22.33;40.45;102003.91;5007649;28;20275;-92
2023/09/16 06:53:20;;;;;;;;;;;;;;;22.46;40.33;102001.25;5008234;28;19940;-92
2023/09/16 06:55:46;;;;;;;;;;;;;;;22.59;40.10;102010.59;5021668;28;20012;-93
2023/09/16 06:58:11;;;;;;;;;;;;;;;22.70;40.00;102013.97;5010574;28;19921;-93
2023/09/16 07:00:37;;;;;;;;;;;;;;;22.75;40.12;102016.59;5005017;28;19926;-93
2023/09/16 07:03:03;;;;;;;;;;;;;;;22.84;39.98;102004.75;5014312;28;19921;-91
2023/09/16 07:05:31;;;;;;;;;;;;;;;22.97;39.63;101989.44;5010902;28;19952;-93
2023/09/16 07:07:58;;;;;;;;;;;;;;;23.08;39.79;101996.38;5011553;28;19917;-92
2023/09/16 07:10:24;;;;;;;;;;;;;;;23.20;39.55;101995.88;5003928;28;19933;-91
2023/09/16 07:12:49;;;;;;;;;;;;;;;23.35;39.74;101992.84;5012702;28;19939;-91
2023/09/16 07:15:15;;;;;;;;;;;;;;;23.50;39.38;101997.97;5006646;28;19933;-91
2023/09/16 07:17:40;;;;;;;;;;;;;;;23.65;39.31;101991.41;5010244;28;19922;-91
2023/09/16 07:20:06;;;;;;;;;;;;;;;23.81;39.21;101995.44;5009414;28;19975;-92
2023/09/16 07:22:31;;;;;;;;;;;;;;;23.93;39.22;102002.34;5006544;28;19926;-91
2023/09/16 07:24:57;;;;;;;;;;;;;;;24.03;38.95;101991.13;5016635;28;19917;-91
2023/09/16 07:27:22;;;;;;;;;;;;;;;24.10;38.78;101986.88;5012152;28;19921;-91
2023/09/16 07:29:47;;;;;;;;;;;;;;;24.21;38.68;101989.34;5006171;28;20544;-91
2023/09/16 07:32:13;;;;;;;;;;;;;;;24.29;38.83;101978.50;5003790;28;20385;-91
2023/09/16 07:34:38;;;;;;;;;;;;;;;24.41;38.70;101980.66;5020144;28;20489;-91
2023/09/16 07:37:03;;;;;;;;;;;;;;;24.54;38.62;101979.00;5007618;28;20305;-91
2023/09/16 07:39:29;;;;;;;;;;;;;;;24.71;38.46;101981.84;5009708;28;19921;-91
2023/09/16 07:41:55;;;;;;;;;;;;;;;24.88;38.32;101987.41;5017773;28;19996;-91
2023/09/16 07:44:20;;;;;;;;;;;;;;;25.06;38.04;101984.78;5001982;28;20420;-91
2023/09/16 07:46:48;;;;;;;;;;;;;;;25.23;37.99;101971.94;5009730;28;19924;-92
2023/09/16 07:49:13;;;;;;;;;;;;;;;25.40;37.63;101982.16;5029010;28;19921;-90
2023/09/16 07:51:40;;;;;;;;;;;;;;;25.55;37.50;101980.91;5013695;28;19928;-92
2023/09/16 07:54:07;;;;;;;;;;;;;;;25.70;37.47;101977.75;5011410;28;19917;-92
2023/09/16 07:56:32;;;;;;;;;;;;;;;25.85;37.47;101980.03;5009423;28;19936;-93
2023/09/16 07:58:57;;;;;;;;;;;;;;;26.01;37.30;101980.34;5011471;28;20013;-92
2023/09/16 08:01:24;;;;;;;;;;;;;;;26.18;36.91;101977.59;5009706;28;19925;-93
2023/09/16 08:03:49;;;;;;;;;;;;;;;26.34;36.72;101977.09;5005428;28;20409;-87
2023/09/16 08:06:14;;;;;;;;;;;;;;;26.45;36.67;101981.16;5002473;28;19925;-86
2023/09/16 08:08:40;;;;;;;;;;;;;;;26.54;36.52;101976.44;5001990;28;19921;-89
2023/09/16 08:11:05;;;;;;;;;;;;;;;26.67;36.58;101977.41;5008139;28;19922;-89
2023/09/16 08:13:30;;;;;;;;;;;;;;;26.76;36.16;101981.75;5008997;28;19925;-92
2023/09/16 08:15:56;;;;;;;;;;;;;;;26.76;36.17;101979.00;5001589;28;19918;-88
2023/09/16 08:18:21;;;;;;;;;;;;;;;26.79;36.10;101966.53;5002360;28;19917;-88
2023/09/16 08:20:46;;;;;;;;;;;;;;;26.80;36.10;101968.94;5005224;28;19917;-87
2023/09/16 08:23:13;;;;;;;;;;;;;;;26.82;36.11;101973.31;5002580;28;20004;-87
2023/09/16 08:25:39;;;;;;;;;;;;;;;26.79;36.02;101958.28;5004556;28;19933;-88
2023/09/16 08:28:04;;;;;;;;;;;;;;;26.80;36.17;101960.72;5007497;28;19918;-91
2023/09/16 08:30:29;;;;;;;;;;;;;;;26.88;36.18;101961.00;5003145;28;21173;-85
2023/09/16 08:32:55;;;;;;;;;;;;;;;27.03;36.04;101969.53;5003933;28;20008;-85
2023/09/16 08:35:22;;;;;;;;;;;;;;;27.17;35.89;101957.50;5000925;28;20134;-85
2023/09/16 08:37:47;;;;;;;;;;;;;;;27.34;35.75;101952.72;5002570;28;19917;-85
2023/09/16 08:40:13;;;;;;;;;;;;;;;27.51;35.29;101962.00;5004140;28;19918;-89
2023/09/16 08:42:43;;;;;;;;;;;;;;;27.64;34.88;101960.97;5002202;28;19921;-87
2023/09/16 08:45:14;;;;;;;;;;;;;;;27.73;35.29;101960.91;5004267;28;20344;-91
2023/09/16 08:47:40;;;;;;;;;;;;;;;27.80;34.90;101953.72;5021504;28;19918;-93
2023/09/16 08:50:07;;;;;;;;;;;;;;;27.88;34.83;101961.13;5001934;28;19932;-86
2023/09/16 08:52:37;;;;;;;;;;;;;;;28.00;34.72;101958.41;4999684;28;20078;-88
2023/09/16 08:55:03;;;;;;;;;;;;;;;28.13;34.67;101956.53;5005456;28;20431;-92
2023/09/16 08:57:29;;;;;;;;;;;;;;;28.19;34.56;101948.88;5004402;28;19918;-85
2023/09/16 08:59:54;;;;;;;;;;;;;;;28.20;34.31;101956.00;5007338;28;19922;-88
2023/09/16 09:02:21;;;;;;;;;;;;;;;28.31;34.34;101959.94;5005821;28;19960;-88
2023/09/16 09:04:46;;;;;;;;;;;;;;;28.46;34.42;101953.00;5000998;28;19947;-88
2023/09/16 09:07:12;;;;;;;;;;;;;;;28.62;34.04;101951.19;5003197;28;20373;-87
2023/09/16 09:09:37;;;;;;;;;;;;;;;28.75;33.62;101952.03;5006217;28;20416;-90
2023/09/16 09:12:03;;;;;;;;;;;;;;;28.83;33.85;101935.38;5005028;28;19925;-88
2023/09/16 09:14:29;;;;;;;;;;;;;;;28.97;33.61;101937.03;5005339;28;19922;-85
2023/09/16 09:16:56;;;;;;;;;;;;;;;29.00;33.50;101942.66;5001400;28;19982;-85
2023/09/16 09:19:22;;;;;;;;;;;;;;;29.05;33.64;101931.38;5001350;28;20092;-88
2023/09/16 09:21:47;;;;;;;;;;;;;;;29.10;33.65;101936.69;5007721;28;20476;-90
2023/09/16 09:24:13;;;;;;;;;;;;;;;29.17;33.61;101923.09;5004737;28;19918;-89
2023/09/16 09:26:38;;;;;;;;;;;;;;;29.30;33.28;101920.34;5000238;28;19991;-88
2023/09/16 09:29:09;;;;;;;;;;;;;;;29.43;33.23;101924.66;5000545;28;19929;-85
2023/09/16 09:31:36;;;;;;;;;;;;;;;29.58;33.23;101921.22;4998810;28;19928;-92
2023/09/16 09:34:02;;;;;;;;;;;;;;;29.63;33.03;101920.19;5001180;28;20035;-88
2023/09/16 09:36:30;;;;;;;;;;;;;;;29.65;32.72;101915.91;5003541;28;19957;-90
2023/09/16 09:38:56;;;;;;;;;;;;;;;29.71;32.97;101916.47;5003764;28;19926;-85
2023/09/16 09:41:21;;;;;;;;;;;;;;;29.86;32.69;101906.63;5002209;28;20320;-86
2023/09/16 09:43:48;;;;;;;;;;;;;;;30.00;32.62;101907.84;5003293;28;19928;-90
2023/09/16 09:46:13;;;;;;;;;;;;;;;30.13;32.33;101907.81;5005420;28;20000;-90
2023/09/16 09:48:39;;;;;;;;;;;;;;;30.32;32.25;101914.25;5007939;28;20016;-91
2023/09/16 09:51:06;;;;;;;;;;;;;;;30.49;32.11;101906.78;5002973;28;20364;-87
2023/09/16 09:53:32;;;;;;;;;;;;;;;30.57;31.91;101898.31;4998735;28;19926;-90
2023/09/16 09:55:58;;;;;;;;;;;;;;;30.69;31.87;101914.03;4997420;28;19960;-89
2023/09/16 09:58:24;;;;;;;;;;;;;;;30.85;31.56;101906.53;4998402;28;19925;-88
2023/09/16 10:00:50;;;;;;;;;;;;;;;31.03;31.25;101900.63;5013678;28;20013;-88
2023/09/16 10:03:21;;;;;;;;;;;;;;;31.15;31.08;101893.00;5001600;28;19925;-89
2023/09/16 10:05:46;;;;;;;;;;;;;;;31.18;30.67;101891.53;5010979;28;19967;-84
2023/09/16 10:08:12;;;;;;;;;;;;;;;31.27;30.86;101895.72;4998238;28;19921;-89
2023/09/16 10:10:38;;;;;;;;;;;;;;;31.39;30.47;101885.66;4998177;28;19929;-84
2023/09/16 10:13:03;;;;;;;;;;;;;;;31.57;30.61;101878.50;4998607;28;20275;-89
2023/09/16 10:15:33;;;;;;;;;;;;;;;31.75;30.50;101881.69;4997278;28;19928;-89
2023/09/16 10:17:58;;;;;;;;;;;;;;;31.87;30.43;101870.44;4999706;28;19922;-90
2023/09/16 10:20:24;;;;;;;;;;;;;;;31.98;30.32;101865.91;4997903;28;19922;-85
2023/09/16 10:22:50;;;;;;;;;;;;;;;31.99;30.26;101867.53;4996833;28;19922;-89
2023/09/16 10:25:19;;;;;;;;;;;;;;;32.00;29.94;101858.03;5001304;28;20008;-87
2023/09/16 10:27:51;;;;;;;;;;;;;;;32.03;30.23;101862.84;4999796;28;19964;-85
2023/09/16 10:30:17;;;;;;;;;;;;;;;32.14;30.07;101858.31;5002580;28;20679;-88
2023/09/16 10:32:42;;;;;;;;;;;;;;;32.30;30.03;101849.88;5002666;28;19929;-85
2023/09/16 10:35:08;;;;;;;;;;;;;;;32.46;29.71;101853.31;5001144;28;19921;-89
2023/09/16 10:37:35;;;;;;;;;;;;;;;32.61;29.51;101850.78;4996418;28;20842;-89
2023/09/16 10:40:02;;;;;;;;;;;;;;;32.73;29.46;101851.38;5003635;28;20011;-89
2023/09/16 10:42:28;;;;;;;;;;;;;;;32.84;29.09;101850.75;4996435;28;19945;-89
2023/09/16 10:44:54;;;;;;;;;;;;;;;32.95;28.81;101846.97;4997334;28;19961;-88
2023/09/16 10:47:21;;;;;;;;;;;;;;;33.00;28.47;101857.75;4996822;28;20892;-85
2023/09/16 10:49:46;;;;;;;;;;;;;;;33.00;28.06;101854.16;5000822;28;19991;-87
2023/09/16 10:52:16;;;;;;;;;;;;;;;32.98;28.15;101842.66;5001761;28;20416;-89
2023/09/16 10:54:53;;;;;;;;;;;;;;;33.05;28.71;101845.53;5000843;28;19925;-90
2023/09/16 10:57:30;;;;;;;;;;;;;;;33.19;28.40;101850.47;5001323;28;19929;-92
2023/09/16 10:59:57;;;;;;;;;;;;;;;33.29;28.31;101839.50;5005766;28;19918;-90
2023/09/16 11:02:45;;;;;;;;;;;;;;;33.38;28.08;101832.88;5001767;28;19921;-87
2023/09/16 11:05:10;;;;;;;;;;;;;;;33.51;27.85;101837.81;5000898;28;20700;-86
2023/09/16 11:07:37;;;;;;;;;;;;;;;33.57;27.65;101832.72;5005825;28;19921;-90
2023/09/16 11:10:03;;;;;;;;;;;;;;;33.59;27.66;101833.16;5018898;28;19926;-89
2023/09/16 11:12:29;;;;;;;;;;;;;;;33.64;27.41;101838.38;5006344;28;20023;-90
2023/09/16 11:14:55;;;;;;;;;;;;;;;33.66;27.34;101827.66;5008223;28;20064;-89
2023/09/16 11:17:21;;;;;;;;;;;;;;;33.72;27.48;101820.56;5009003;28;20405;-90
2023/09/16 11:19:47;;;;;;;;;;;;;;;33.81;27.29;101823.88;5007635;28;19918;-88
2023/09/16 11:22:12;;;;;;;;;;;;;;;33.93;27.36;101825.59;5008136;28;19924;-94
2023/09/16 11:24:42;;;;;;;;;;;;;;;33.96;27.07;101812.94;5000578;28;19929;-93
2023/09/16 11:27:07;;;;;;;;;;;;;;;33.98;26.99;101813.34;5001028;28;19917;-90
2023/09/16 11:29:33;;;;;;;;;;;;;;;34.08;26.87;101804.28;4997763;28;19964;-90
2023/09/16 11:31:59;;;;;;;;;;;;;;;34.23;26.99;101806.00;5001731;28;20617;-88
2023/09/16 11:34:26;;;;;;;;;;;;;;;34.41;27.10;101806.97;5000418;28;20013;-86
2023/09/16 11:36:52;;;;;;;;;;;;;;;34.53;26.92;101812.25;5002120;28;19925;-89
2023/09/16 11:39:21;;;;;;;;;;;;;;;34.56;26.47;101809.88;5005565;28;19925;-85
2023/09/16 11:41:47;;;;;;;;;;;;;;;34.54;26.59;101799.91;5006894;28;19917;-89
2023/09/16 11:44:13;;;;;;;;;;;;;;;34.51;26.48;101806.25;5007918;28;19921;-85
2023/09/16 11:46:38;;;;;;;;;;;;;;;34.45;26.29;101801.44;5000715;28;19944;-86
2023/09/16 11:49:05;;;;;;;;;;;;;;;34.52;26.97;101805.06;5006399;28;20020;-88
2023/09/16 11:51:31;;;;;;;;;;;;;;;34.54;26.28;101799.91;5004765;28;19952;-89
2023/09/16 11:53:57;;;;;;;;;;;;;;;34.67;26.29;101788.47;5004822;28;19922;-90
2023/09/16 11:56:23;;;;;;;;;;;;;;;34.81;26.16;101786.56;5004193;28;19924;-90
2023/09/16 11:58:49;;;;;;;;;;;;;;;34.94;25.59;101777.91;5005145;28;20032;-85
2023/09/16 12:01:19;;;;;;;;;;;;;;;35.01;26.13;101772.34;5003339;28;20001;-88
2023/09/16 12:03:45;;;;;;;;;;;;;;;35.12;26.39;101771.22;5003403;28;19925;-87
2023/09/16 12:06:11;;;;;;;;;;;;;;;35.27;26.17;101768.50;5006796;28;19926;-89
2023/09/16 12:08:37;;;;;;;;;;;;;;;35.46;25.94;101761.81;5011516;28;19921;-89
2023/09/16 12:11:05;;;;;;;;;;;;;;;35.60;25.81;101759.06;5008224;28;19925;-89
2023/09/16 12:13:31;;;;;;;;;;;;;;;35.70;25.86;101761.84;5005924;28;19952;-85
2023/09/16 12:15:57;;;;;;;;;;;;;;;35.81;25.30;101759.09;5019545;28;19922;-87
2023/09/16 12:18:22;;;;;;;;;;;;;;;35.82;25.41;101743.16;5021522;28;19940;-86
2023/09/16 12:20:48;;;;;;;;;;;;;;;35.79;25.18;101732.78;5002378;28;19921;-92
2023/09/16 12:23:15;;;;;;;;;;;;;;;35.84;25.60;101743.56;5010157;28;19924;-91
2023/09/16 12:25:41;;;;;;;;;;;;;;;35.94;25.25;101740.00;5009875;28;20084;-89
2023/09/16 12:28:08;;;;;;;;;;;;;;;36.07;25.08;101743.16;5008114;28;19921;-91
2023/09/16 12:30:40;;;;;;;;;;;;;;;36.22;25.39;101739.16;5008991;28;19929;-91